CPX656 Details

Departure: Key West International Airport (KEYW)
Arrival: The Florida Keys Marathon International Airport (KMTH)
Route: VPKOE


Current Weather Information
KEYW 251053Z 05007KT 9SM CLR 24/21 A3002 RMK AO2 SLP165 T02440211
KMTH 251053Z AUTO 08008G15KT 9SM FEW035 27/18 A3002 RMK AO2 SLP164 T02670183